Terminal Aerodrome Forecast
Issued by NWS

Home | Current Version | Previous Version | Text Only | Print | Product List | Glossary On
Versions: 1 2 3 4 5 6 7 8 9 10 11 12 13 14 15 16 17
000
FTUS41 KGYX 102320
TAFPSM
TAF
KPSM 102320Z 1100/1124 29005KT P6SM FEW050
     FM111800 25007KT P6SM OVC250
     FM112300 20003KT P6SM OVC100=

USA.gov is the U.S. government's official web portal to all federal, state and local government web resources and services.